Westminster, MA (01473)

4:09 PM EDT on September 03, 2015 (GMT -0400)
East Main St. | | Change Station
CLOSE
Current Station
Personal Weather Station
Location: Westminster, MA
Elevation: 995 ft
Nearby Weather Stations

Elev 995 ft 42.55 °N, 71.91 °W | Updated 22 seconds ago

Partly Cloudy
Partly Cloudy
87.6 °F
Feels Like 85 °F
N
0.0
Wind Variable Wind from WSW
Gusts 0.0 mph

Today
High -- | Low -- °F
--% Chance of Precip.
Yesterday
High -- | Low -- °F
Precip. -- in
6:14 AM 7:18 PM
Waning Gibbous, 67% visible
Pressure 29.83 in
Visibility 9.0 miles
Clouds Scattered Clouds 6500 ft
Heat Index 85 °F
Dew Point 52 °F
Humidity 29%
Rainfall 0.00 in
Snow Depth Not available.
UV 4 out of 12
Pollen 8.70 out of 12
Air Quality Not available.
Flu Activity Not available.
METAR KFIT 031952Z AUTO 11005KT 9SM SCT065 32/17 A2984 RMK AO2 SLP102 T03220167
Pressure 29.83 in
Visibility 9.0 miles
Clouds Scattered Clouds 6500 ft
Heat Index 85 °F
Dew Point 52 °F
Humidity 29%
Rainfall 0.00 in
Snow Depth Not available.
UV 4 out of 12
Pollen 8.70 out of 12
Air Quality Not available.
Flu Activity Not available.
METAR KFIT 031952Z AUTO 11005KT 9SM SCT065 32/17 A2984 RMK AO2 SLP102 T03220167

10-Day Weather Forecast

×

Almanac

Astronomy

Sep. 03, 2015 Rise Set
Actual Time
Civil Twilight
Nautical Twilight
Astronomical Twilight
Moon
Length of Visible Light
Length of Day
Tomorrow will be .
, % of the Moon is Illuminated

Today's Extremes

State Highs State Lows

Community

WunderPhotos

Upload Photos

1,852,019 photos uploaded!

WunderBlogs® & News

Nearby

Air Quality

  Air Quality AQ Index Pollutant
Not available.

Snow Depth

Station Depth Elevation

Earthquake Activity

City Distance Mag. Time & Date
Minimum magnitude displayed is 2.5.

Coastal Water Temperatures

Place Temperature

Stations

Nearby Weather Stations

Station Location Temp. Windchill Dew Point Humidity Wind Precip. Elev Updated Type